sensor_id;sensor_type;location;lat;lon;timestamp;P1;durP1;ratioP1;P2;durP2;ratioP2
7162;SDS011;3623;47.098;15.446;2023-01-31T00:01:29;1.33;;;1.23;;
7162;SDS011;3623;47.098;15.446;2023-01-31T00:03:59;0.90;;;0.90;;
7162;SDS011;3623;47.098;15.446;2023-01-31T00:06:28;0.90;;;0.90;;
7162;SDS011;3623;47.098;15.446;2023-01-31T00:08:57;2.20;;;1.05;;
7162;SDS011;3623;47.098;15.446;2023-01-31T00:11:26;1.15;;;1.00;;
7162;SDS011;3623;47.098;15.446;2023-01-31T00:13:56;0.90;;;0.90;;
7162;SDS011;3623;47.098;15.446;2023-01-31T00:16:24;0.70;;;0.70;;
7162;SDS011;3623;47.098;15.446;2023-01-31T00:18:52;5.00;;;1.10;;
7162;SDS011;3623;47.098;15.446;2023-01-31T00:21:20;1.15;;;1.15;;
7162;SDS011;3623;47.098;15.446;2023-01-31T00:23:50;1.15;;;1.15;;
7162;SDS011;3623;47.098;15.446;2023-01-31T00:26:19;1.15;;;1.05;;
7162;SDS011;3623;47.098;15.446;2023-01-31T00:28:49;1.05;;;1.00;;
7162;SDS011;3623;47.098;15.446;2023-01-31T00:31:24;1.13;;;1.02;;
7162;SDS011;3623;47.098;15.446;2023-01-31T00:33:52;0.82;;;0.80;;
7162;SDS011;3623;47.098;15.446;2023-01-31T00:36:21;0.90;;;0.90;;
7162;SDS011;3623;47.098;15.446;2023-01-31T00:38:49;1.23;;;1.13;;
7162;SDS011;3623;47.098;15.446;2023-01-31T00:41:17;1.10;;;1.00;;
7162;SDS011;3623;47.098;15.446;2023-01-31T00:43:45;1.13;;;1.00;;
7162;SDS011;3623;47.098;15.446;2023-01-31T00:46:13;1.05;;;1.05;;
7162;SDS011;3623;47.098;15.446;2023-01-31T00:48:41;1.00;;;1.00;;
7162;SDS011;3623;47.098;15.446;2023-01-31T00:51:11;0.90;;;0.90;;
7162;SDS011;3623;47.098;15.446;2023-01-31T00:53:38;1.00;;;1.00;;
7162;SDS011;3623;47.098;15.446;2023-01-31T00:56:06;1.33;;;1.23;;
7162;SDS011;3623;47.098;15.446;2023-01-31T00:58:34;0.80;;;0.80;;
7162;SDS011;3623;47.098;15.446;2023-01-31T01:01:05;0.90;;;0.90;;
7162;SDS011;3623;47.098;15.446;2023-01-31T01:03:33;1.08;;;0.98;;
7162;SDS011;3623;47.098;15.446;2023-01-31T01:06:02;1.10;;;1.10;;
7162;SDS011;3623;47.098;15.446;2023-01-31T01:08:30;0.90;;;0.90;;
7162;SDS011;3623;47.098;15.446;2023-01-31T01:11:02;0.90;;;0.90;;
7162;SDS011;3623;47.098;15.446;2023-01-31T01:13:30;0.85;;;0.85;;
7162;SDS011;3623;47.098;15.446;2023-01-31T01:16:02;0.80;;;0.80;;
7162;SDS011;3623;47.098;15.446;2023-01-31T01:18:30;1.10;;;1.10;;
7162;SDS011;3623;47.098;15.446;2023-01-31T01:21:05;1.35;;;1.20;;
7162;SDS011;3623;47.098;15.446;2023-01-31T01:23:34;0.80;;;0.80;;
7162;SDS011;3623;47.098;15.446;2023-01-31T01:26:01;0.90;;;0.90;;
7162;SDS011;3623;47.098;15.446;2023-01-31T01:28:31;1.02;;;1.02;;
7162;SDS011;3623;47.098;15.446;2023-01-31T01:31:03;1.20;;;1.20;;
7162;SDS011;3623;47.098;15.446;2023-01-31T01:33:31;0.90;;;0.90;;
7162;SDS011;3623;47.098;15.446;2023-01-31T01:35:59;0.80;;;0.80;;
7162;SDS011;3623;47.098;15.446;2023-01-31T01:38:28;1.15;;;0.90;;
7162;SDS011;3623;47.098;15.446;2023-01-31T01:40:57;1.10;;;1.00;;
7162;SDS011;3623;47.098;15.446;2023-01-31T01:43:37;1.08;;;1.08;;
7162;SDS011;3623;47.098;15.446;2023-01-31T01:46:06;0.80;;;0.80;;
7162;SDS011;3623;47.098;15.446;2023-01-31T01:48:35;0.82;;;0.82;;
7162;SDS011;3623;47.098;15.446;2023-01-31T01:51:03;0.90;;;0.90;;
7162;SDS011;3623;47.098;15.446;2023-01-31T01:53:33;0.80;;;0.80;;
7162;SDS011;3623;47.098;15.446;2023-01-31T01:56:05;0.90;;;0.90;;
7162;SDS011;3623;47.098;15.446;2023-01-31T01:58:35;1.10;;;1.10;;
7162;SDS011;3623;47.098;15.446;2023-01-31T02:01:08;1.05;;;1.05;;
7162;SDS011;3623;47.098;15.446;2023-01-31T02:03:37;0.90;;;0.90;;
7162;SDS011;3623;47.098;15.446;2023-01-31T02:06:05;1.02;;;1.02;;
7162;SDS011;3623;47.098;15.446;2023-01-31T02:08:35;0.73;;;0.73;;
7162;SDS011;3623;47.098;15.446;2023-01-31T02:11:07;1.00;;;0.95;;
7162;SDS011;3623;47.098;15.446;2023-01-31T02:13:38;1.00;;;1.00;;
7162;SDS011;3623;47.098;15.446;2023-01-31T02:16:06;4.78;;;1.20;;
7162;SDS011;3623;47.098;15.446;2023-01-31T02:18:34;0.80;;;0.80;;
7162;SDS011;3623;47.098;15.446;2023-01-31T02:21:12;1.45;;;0.90;;
7162;SDS011;3623;47.098;15.446;2023-01-31T02:24:10;1.45;;;0.95;;
7162;SDS011;3623;47.098;15.446;2023-01-31T02:27:10;0.90;;;0.90;;
7162;SDS011;3623;47.098;15.446;2023-01-31T02:30:10;1.08;;;1.08;;
7162;SDS011;3623;47.098;15.446;2023-01-31T02:33:02;1.00;;;1.00;;
7162;SDS011;3623;47.098;15.446;2023-01-31T02:35:42;1.40;;;1.13;;
7162;SDS011;3623;47.098;15.446;2023-01-31T02:38:21;2.97;;;1.00;;
7162;SDS011;3623;47.098;15.446;2023-01-31T02:41:03;1.08;;;1.08;;
7162;SDS011;3623;47.098;15.446;2023-01-31T02:43:39;1.00;;;1.00;;
7162;SDS011;3623;47.098;15.446;2023-01-31T02:46:31;0.80;;;0.80;;
7162;SDS011;3623;47.098;15.446;2023-01-31T02:49:03;1.95;;;1.00;;
7162;SDS011;3623;47.098;15.446;2023-01-31T02:51:38;0.90;;;0.90;;
7162;SDS011;3623;47.098;15.446;2023-01-31T02:54:32;1.10;;;1.10;;
7162;SDS011;3623;47.098;15.446;2023-01-31T02:57:15;0.90;;;0.90;;
7162;SDS011;3623;47.098;15.446;2023-01-31T02:59:45;0.90;;;0.90;;
7162;SDS011;3623;47.098;15.446;2023-01-31T03:02:13;2.85;;;1.10;;
7162;SDS011;3623;47.098;15.446;2023-01-31T03:04:42;0.90;;;0.90;;
7162;SDS011;3623;47.098;15.446;2023-01-31T03:07:11;1.08;;;1.00;;
7162;SDS011;3623;47.098;15.446;2023-01-31T03:09:47;1.10;;;1.10;;
7162;SDS011;3623;47.098;15.446;2023-01-31T03:12:30;1.00;;;1.00;;
7162;SDS011;3623;47.098;15.446;2023-01-31T03:15:09;1.10;;;1.10;;
7162;SDS011;3623;47.098;15.446;2023-01-31T03:18:12;0.95;;;0.95;;
7162;SDS011;3623;47.098;15.446;2023-01-31T03:20:47;1.13;;;1.13;;
7162;SDS011;3623;47.098;15.446;2023-01-31T03:23:19;0.82;;;0.82;;
7162;SDS011;3623;47.098;15.446;2023-01-31T03:25:48;0.82;;;0.82;;
7162;SDS011;3623;47.098;15.446;2023-01-31T03:28:17;0.75;;;0.75;;
7162;SDS011;3623;47.098;15.446;2023-01-31T03:30:51;0.80;;;0.80;;
7162;SDS011;3623;47.098;15.446;2023-01-31T03:33:24;1.00;;;1.00;;
7162;SDS011;3623;47.098;15.446;2023-01-31T03:35:56;1.55;;;0.95;;
7162;SDS011;3623;47.098;15.446;2023-01-31T03:38:30;0.95;;;0.95;;
7162;SDS011;3623;47.098;15.446;2023-01-31T03:41:01;1.30;;;1.20;;
7162;SDS011;3623;47.098;15.446;2023-01-31T03:43:35;1.08;;;1.08;;
7162;SDS011;3623;47.098;15.446;2023-01-31T03:46:06;0.90;;;0.90;;
7162;SDS011;3623;47.098;15.446;2023-01-31T03:48:37;0.73;;;0.70;;
7162;SDS011;3623;47.098;15.446;2023-01-31T03:51:09;1.23;;;0.90;;
7162;SDS011;3623;47.098;15.446;2023-01-31T03:53:42;1.00;;;1.00;;
7162;SDS011;3623;47.098;15.446;2023-01-31T03:56:14;1.63;;;1.30;;
7162;SDS011;3623;47.098;15.446;2023-01-31T03:58:47;1.27;;;1.27;;
7162;SDS011;3623;47.098;15.446;2023-01-31T04:01:18;0.90;;;0.90;;
7162;SDS011;3623;47.098;15.446;2023-01-31T04:03:50;1.00;;;1.00;;
7162;SDS011;3623;47.098;15.446;2023-01-31T04:06:22;0.93;;;0.93;;
7162;SDS011;3623;47.098;15.446;2023-01-31T04:08:49;1.00;;;1.00;;
7162;SDS011;3623;47.098;15.446;2023-01-31T04:11:19;1.10;;;1.10;;
7162;SDS011;3623;47.098;15.446;2023-01-31T04:13:49;0.98;;;0.98;;
7162;SDS011;3623;47.098;15.446;2023-01-31T04:16:16;2.35;;;1.13;;
7162;SDS011;3623;47.098;15.446;2023-01-31T04:18:44;0.90;;;0.90;;
7162;SDS011;3623;47.098;15.446;2023-01-31T04:21:12;0.98;;;0.98;;
7162;SDS011;3623;47.098;15.446;2023-01-31T04:23:41;1.10;;;1.10;;
7162;SDS011;3623;47.098;15.446;2023-01-31T04:26:08;0.80;;;0.80;;
7162;SDS011;3623;47.098;15.446;2023-01-31T04:28:35;1.13;;;1.10;;
7162;SDS011;3623;47.098;15.446;2023-01-31T04:31:03;0.70;;;0.70;;
7162;SDS011;3623;47.098;15.446;2023-01-31T04:33:30;1.20;;;1.00;;
7162;SDS011;3623;47.098;15.446;2023-01-31T04:35:57;1.35;;;1.00;;
7162;SDS011;3623;47.098;15.446;2023-01-31T04:38:25;0.85;;;0.85;;
7162;SDS011;3623;47.098;15.446;2023-01-31T04:40:54;0.90;;;0.90;;
7162;SDS011;3623;47.098;15.446;2023-01-31T04:43:21;0.90;;;0.90;;
7162;SDS011;3623;47.098;15.446;2023-01-31T04:45:48;0.95;;;0.95;;
7162;SDS011;3623;47.098;15.446;2023-01-31T04:48:15;2.50;;;2.30;;
7162;SDS011;3623;47.098;15.446;2023-01-31T04:50:48;5.78;;;5.22;;
7162;SDS011;3623;47.098;15.446;2023-01-31T04:53:15;6.43;;;5.60;;
7162;SDS011;3623;47.098;15.446;2023-01-31T04:55:43;2.33;;;2.10;;
7162;SDS011;3623;47.098;15.446;2023-01-31T04:58:11;2.13;;;1.92;;
7162;SDS011;3623;47.098;15.446;2023-01-31T05:00:44;1.60;;;1.50;;
7162;SDS011;3623;47.098;15.446;2023-01-31T05:03:11;1.63;;;1.52;;
7162;SDS011;3623;47.098;15.446;2023-01-31T05:05:38;2.05;;;1.95;;
7162;SDS011;3623;47.098;15.446;2023-01-31T05:08:06;5.63;;;3.55;;
7162;SDS011;3623;47.098;15.446;2023-01-31T05:10:33;12.98;;;8.57;;
7162;SDS011;3623;47.098;15.446;2023-01-31T05:13:01;10.55;;;6.88;;
7162;SDS011;3623;47.098;15.446;2023-01-31T05:15:30;15.63;;;9.10;;
7162;SDS011;3623;47.098;15.446;2023-01-31T05:17:57;8.32;;;5.97;;
7162;SDS011;3623;47.098;15.446;2023-01-31T05:20:36;2.97;;;2.78;;
7162;SDS011;3623;47.098;15.446;2023-01-31T05:23:05;4.38;;;4.00;;
7162;SDS011;3623;47.098;15.446;2023-01-31T05:25:33;2.63;;;2.42;;
7162;SDS011;3623;47.098;15.446;2023-01-31T05:28:01;2.08;;;1.85;;
7162;SDS011;3623;47.098;15.446;2023-01-31T05:30:30;1.83;;;1.73;;
7162;SDS011;3623;47.098;15.446;2023-01-31T05:32:58;1.63;;;1.63;;
7162;SDS011;3623;47.098;15.446;2023-01-31T05:35:25;1.92;;;1.77;;
7162;SDS011;3623;47.098;15.446;2023-01-31T05:37:52;0.93;;;0.93;;
7162;SDS011;3623;47.098;15.446;2023-01-31T05:40:19;1.35;;;1.25;;
7162;SDS011;3623;47.098;15.446;2023-01-31T05:42:49;1.17;;;1.17;;
7162;SDS011;3623;47.098;15.446;2023-01-31T05:45:19;1.50;;;1.40;;
7162;SDS011;3623;47.098;15.446;2023-01-31T05:47:48;1.67;;;1.55;;
7162;SDS011;3623;47.098;15.446;2023-01-31T05:50:15;1.58;;;1.35;;
7162;SDS011;3623;47.098;15.446;2023-01-31T05:52:48;6.35;;;2.28;;
7162;SDS011;3623;47.098;15.446;2023-01-31T05:55:16;2.58;;;1.35;;
7162;SDS011;3623;47.098;15.446;2023-01-31T05:57:43;5.60;;;1.50;;
7162;SDS011;3623;47.098;15.446;2023-01-31T06:00:13;1.52;;;1.42;;
7162;SDS011;3623;47.098;15.446;2023-01-31T06:02:41;1.40;;;1.30;;
7162;SDS011;3623;47.098;15.446;2023-01-31T06:05:10;1.38;;;1.35;;
7162;SDS011;3623;47.098;15.446;2023-01-31T06:07:37;2.25;;;1.10;;
7162;SDS011;3623;47.098;15.446;2023-01-31T06:10:07;0.88;;;0.88;;
7162;SDS011;3623;47.098;15.446;2023-01-31T06:12:35;1.60;;;1.50;;
7162;SDS011;3623;47.098;15.446;2023-01-31T06:15:03;1.10;;;1.10;;
7162;SDS011;3623;47.098;15.446;2023-01-31T06:17:30;1.17;;;1.17;;
7162;SDS011;3623;47.098;15.446;2023-01-31T06:19:58;1.30;;;1.30;;
7162;SDS011;3623;47.098;15.446;2023-01-31T06:22:27;1.58;;;1.48;;
7162;SDS011;3623;47.098;15.446;2023-01-31T06:24:54;1.50;;;1.40;;
7162;SDS011;3623;47.098;15.446;2023-01-31T06:27:21;1.55;;;1.45;;
7162;SDS011;3623;47.098;15.446;2023-01-31T06:29:49;1.40;;;1.30;;
7162;SDS011;3623;47.098;15.446;2023-01-31T06:32:17;1.55;;;1.45;;
7162;SDS011;3623;47.098;15.446;2023-01-31T06:34:44;2.95;;;1.23;;
7162;SDS011;3623;47.098;15.446;2023-01-31T06:37:11;1.67;;;1.50;;
7162;SDS011;3623;47.098;15.446;2023-01-31T06:39:44;6.60;;;2.03;;
7162;SDS011;3623;47.098;15.446;2023-01-31T06:42:11;1.75;;;1.65;;
7162;SDS011;3623;47.098;15.446;2023-01-31T06:44:38;3.90;;;2.90;;
7162;SDS011;3623;47.098;15.446;2023-01-31T06:47:05;3.97;;;2.13;;
7162;SDS011;3623;47.098;15.446;2023-01-31T06:49:32;1.80;;;1.70;;
7162;SDS011;3623;47.098;15.446;2023-01-31T06:51:59;3.85;;;2.00;;
7162;SDS011;3623;47.098;15.446;2023-01-31T06:54:26;3.35;;;2.65;;
7162;SDS011;3623;47.098;15.446;2023-01-31T06:56:54;3.13;;;2.58;;
7162;SDS011;3623;47.098;15.446;2023-01-31T06:59:22;3.47;;;2.70;;
7162;SDS011;3623;47.098;15.446;2023-01-31T07:01:49;1.52;;;1.42;;
7162;SDS011;3623;47.098;15.446;2023-01-31T07:04:16;2.08;;;1.95;;
7162;SDS011;3623;47.098;15.446;2023-01-31T07:06:43;1.40;;;1.30;;
7162;SDS011;3623;47.098;15.446;2023-01-31T07:09:11;3.80;;;2.20;;
7162;SDS011;3623;47.098;15.446;2023-01-31T07:11:38;1.60;;;1.50;;
7162;SDS011;3623;47.098;15.446;2023-01-31T07:14:06;1.55;;;1.45;;
7162;SDS011;3623;47.098;15.446;2023-01-31T07:16:34;1.77;;;1.67;;
7162;SDS011;3623;47.098;15.446;2023-01-31T07:19:02;1.50;;;1.50;;
7162;SDS011;3623;47.098;15.446;2023-01-31T07:21:29;1.33;;;1.33;;
7162;SDS011;3623;47.098;15.446;2023-01-31T07:23:57;2.42;;;2.33;;
7162;SDS011;3623;47.098;15.446;2023-01-31T07:26:25;1.45;;;1.42;;
7162;SDS011;3623;47.098;15.446;2023-01-31T07:28:52;2.10;;;1.30;;
7162;SDS011;3623;47.098;15.446;2023-01-31T07:31:21;2.00;;;1.50;;
7162;SDS011;3623;47.098;15.446;2023-01-31T07:33:48;1.83;;;1.70;;
7162;SDS011;3623;47.098;15.446;2023-01-31T07:36:15;2.25;;;2.05;;
7162;SDS011;3623;47.098;15.446;2023-01-31T07:38:47;1.45;;;1.35;;
7162;SDS011;3623;47.098;15.446;2023-01-31T07:41:14;2.20;;;1.70;;
7162;SDS011;3623;47.098;15.446;2023-01-31T07:43:41;2.15;;;1.95;;
7162;SDS011;3623;47.098;15.446;2023-01-31T07:46:08;1.88;;;1.77;;
7162;SDS011;3623;47.098;15.446;2023-01-31T07:48:37;1.88;;;1.77;;
7162;SDS011;3623;47.098;15.446;2023-01-31T07:51:04;2.40;;;2.20;;
7162;SDS011;3623;47.098;15.446;2023-01-31T07:53:32;1.70;;;1.70;;
7162;SDS011;3623;47.098;15.446;2023-01-31T07:56:07;2.05;;;1.83;;
7162;SDS011;3623;47.098;15.446;2023-01-31T07:58:36;2.03;;;1.90;;
7162;SDS011;3623;47.098;15.446;2023-01-31T08:01:03;1.80;;;1.73;;
7162;SDS011;3623;47.098;15.446;2023-01-31T08:03:49;3.72;;;1.95;;
7162;SDS011;3623;47.098;15.446;2023-01-31T08:06:16;1.98;;;1.85;;
7162;SDS011;3623;47.098;15.446;2023-01-31T08:08:44;2.42;;;2.17;;
7162;SDS011;3623;47.098;15.446;2023-01-31T08:11:12;5.00;;;2.78;;
7162;SDS011;3623;47.098;15.446;2023-01-31T08:13:39;2.40;;;1.63;;
7162;SDS011;3623;47.098;15.446;2023-01-31T08:16:07;2.35;;;2.15;;
7162;SDS011;3623;47.098;15.446;2023-01-31T08:18:35;1.90;;;1.80;;
7162;SDS011;3623;47.098;15.446;2023-01-31T08:21:05;1.40;;;1.30;;
7162;SDS011;3623;47.098;15.446;2023-01-31T08:23:33;2.15;;;1.23;;
7162;SDS011;3623;47.098;15.446;2023-01-31T08:26:03;1.50;;;1.20;;
7162;SDS011;3623;47.098;15.446;2023-01-31T08:28:33;1.42;;;1.33;;
7162;SDS011;3623;47.098;15.446;2023-01-31T08:31:01;2.78;;;2.58;;
7162;SDS011;3623;47.098;15.446;2023-01-31T08:33:28;1.75;;;1.45;;
7162;SDS011;3623;47.098;15.446;2023-01-31T08:35:55;2.08;;;1.85;;
7162;SDS011;3623;47.098;15.446;2023-01-31T08:38:24;4.78;;;1.52;;
7162;SDS011;3623;47.098;15.446;2023-01-31T08:40:51;4.72;;;1.90;;
7162;SDS011;3623;47.098;15.446;2023-01-31T08:43:18;4.45;;;1.58;;
7162;SDS011;3623;47.098;15.446;2023-01-31T08:45:45;2.03;;;1.88;;
7162;SDS011;3623;47.098;15.446;2023-01-31T08:48:12;2.60;;;2.35;;
7162;SDS011;3623;47.098;15.446;2023-01-31T08:50:40;2.25;;;2.10;;
7162;SDS011;3623;47.098;15.446;2023-01-31T08:53:07;2.25;;;2.03;;
7162;SDS011;3623;47.098;15.446;2023-01-31T08:55:36;1.98;;;1.90;;
7162;SDS011;3623;47.098;15.446;2023-01-31T08:58:03;2.47;;;2.38;;
7162;SDS011;3623;47.098;15.446;2023-01-31T09:00:30;5.40;;;1.77;;
7162;SDS011;3623;47.098;15.446;2023-01-31T09:02:58;2.20;;;2.00;;
7162;SDS011;3623;47.098;15.446;2023-01-31T09:05:27;2.17;;;1.90;;
7162;SDS011;3623;47.098;15.446;2023-01-31T09:07:54;2.92;;;2.13;;
7162;SDS011;3623;47.098;15.446;2023-01-31T09:10:22;2.80;;;2.50;;
7162;SDS011;3623;47.098;15.446;2023-01-31T09:12:51;2.80;;;2.33;;
7162;SDS011;3623;47.098;15.446;2023-01-31T09:15:18;2.65;;;2.50;;
7162;SDS011;3623;47.098;15.446;2023-01-31T09:17:45;2.22;;;2.08;;
7162;SDS011;3623;47.098;15.446;2023-01-31T09:20:12;3.33;;;2.20;;
7162;SDS011;3623;47.098;15.446;2023-01-31T09:22:39;3.60;;;2.03;;
7162;SDS011;3623;47.098;15.446;2023-01-31T09:25:07;2.70;;;2.50;;
7162;SDS011;3623;47.098;15.446;2023-01-31T09:27:35;12.27;;;2.33;;
7162;SDS011;3623;47.098;15.446;2023-01-31T09:30:06;1.15;;;1.15;;
7162;SDS011;3623;47.098;15.446;2023-01-31T09:32:35;3.05;;;1.90;;
7162;SDS011;3623;47.098;15.446;2023-01-31T09:35:03;3.55;;;1.63;;
7162;SDS011;3623;47.098;15.446;2023-01-31T09:37:30;2.45;;;1.40;;
7162;SDS011;3623;47.098;15.446;2023-01-31T09:39:57;1.50;;;1.40;;
7162;SDS011;3623;47.098;15.446;2023-01-31T09:42:25;3.38;;;1.90;;
7162;SDS011;3623;47.098;15.446;2023-01-31T09:44:58;13.82;;;1.58;;
7162;SDS011;3623;47.098;15.446;2023-01-31T09:47:29;1.92;;;1.70;;
7162;SDS011;3623;47.098;15.446;2023-01-31T09:50:02;2.42;;;1.80;;
7162;SDS011;3623;47.098;15.446;2023-01-31T09:52:32;1.20;;;1.20;;
7162;SDS011;3623;47.098;15.446;2023-01-31T09:54:59;4.05;;;1.77;;
7162;SDS011;3623;47.098;15.446;2023-01-31T09:57:31;2.13;;;1.60;;
7162;SDS011;3623;47.098;15.446;2023-01-31T10:00:12;1.70;;;1.60;;
7162;SDS011;3623;47.098;15.446;2023-01-31T10:02:56;2.95;;;1.35;;
7162;SDS011;3623;47.098;15.446;2023-01-31T10:05:41;2.10;;;1.17;;
7162;SDS011;3623;47.098;15.446;2023-01-31T10:08:15;1.50;;;1.40;;
7162;SDS011;3623;47.098;15.446;2023-01-31T10:10:50;1.83;;;1.13;;
7162;SDS011;3623;47.098;15.446;2023-01-31T10:13:21;1.30;;;0.80;;
7162;SDS011;3623;47.098;15.446;2023-01-31T10:15:54;1.88;;;1.15;;
7162;SDS011;3623;47.098;15.446;2023-01-31T10:18:28;1.80;;;0.90;;
7162;SDS011;3623;47.098;15.446;2023-01-31T10:20:58;0.90;;;0.90;;
7162;SDS011;3623;47.098;15.446;2023-01-31T10:23:30;1.95;;;1.20;;
7162;SDS011;3623;47.098;15.446;2023-01-31T10:26:03;2.83;;;1.23;;
7162;SDS011;3623;47.098;15.446;2023-01-31T10:28:37;4.25;;;1.55;;
7162;SDS011;3623;47.098;15.446;2023-01-31T10:31:10;2.15;;;1.02;;
7162;SDS011;3623;47.098;15.446;2023-01-31T10:33:46;1.55;;;1.45;;
7162;SDS011;3623;47.098;15.446;2023-01-31T10:36:18;1.33;;;1.10;;
7162;SDS011;3623;47.098;15.446;2023-01-31T10:38:54;1.45;;;1.35;;
7162;SDS011;3623;47.098;15.446;2023-01-31T10:41:35;1.50;;;1.40;;
7162;SDS011;3623;47.098;15.446;2023-01-31T10:44:12;3.23;;;1.13;;
7162;SDS011;3623;47.098;15.446;2023-01-31T10:46:46;0.83;;;0.80;;
7162;SDS011;3623;47.098;15.446;2023-01-31T10:49:14;4.47;;;1.10;;
7162;SDS011;3623;47.098;15.446;2023-01-31T10:51:57;1.73;;;0.98;;
7162;SDS011;3623;47.098;15.446;2023-01-31T10:54:34;0.88;;;0.88;;
7162;SDS011;3623;47.098;15.446;2023-01-31T10:57:13;1.88;;;0.88;;
7162;SDS011;3623;47.098;15.446;2023-01-31T10:59:41;0.88;;;0.88;;
7162;SDS011;3623;47.098;15.446;2023-01-31T11:02:15;1.63;;;1.05;;
7162;SDS011;3623;47.098;15.446;2023-01-31T11:04:48;1.08;;;0.98;;
7162;SDS011;3623;47.098;15.446;2023-01-31T11:07:16;1.52;;;1.45;;
7162;SDS011;3623;47.098;15.446;2023-01-31T11:09:46;0.70;;;0.70;;
7162;SDS011;3623;47.098;15.446;2023-01-31T11:12:17;2.13;;;1.65;;
7162;SDS011;3623;47.098;15.446;2023-01-31T11:14:44;1.88;;;1.70;;
7162;SDS011;3623;47.098;15.446;2023-01-31T11:17:28;2.55;;;2.22;;
7162;SDS011;3623;47.098;15.446;2023-01-31T11:20:06;1.27;;;1.10;;
7162;SDS011;3623;47.098;15.446;2023-01-31T11:22:46;1.10;;;1.00;;
7162;SDS011;3623;47.098;15.446;2023-01-31T11:25:16;1.20;;;1.10;;
7162;SDS011;3623;47.098;15.446;2023-01-31T11:27:46;2.67;;;1.30;;
7162;SDS011;3623;47.098;15.446;2023-01-31T11:30:19;1.75;;;1.00;;
7162;SDS011;3623;47.098;15.446;2023-01-31T11:32:50;0.98;;;0.98;;
7162;SDS011;3623;47.098;15.446;2023-01-31T11:35:27;0.80;;;0.80;;
7162;SDS011;3623;47.098;15.446;2023-01-31T11:37:56;1.33;;;1.10;;
7162;SDS011;3623;47.098;15.446;2023-01-31T11:40:32;1.80;;;1.10;;
7162;SDS011;3623;47.098;15.446;2023-01-31T11:43:02;1.88;;;1.20;;
7162;SDS011;3623;47.098;15.446;2023-01-31T11:45:31;2.15;;;0.82;;
7162;SDS011;3623;47.098;15.446;2023-01-31T11:48:04;0.80;;;0.80;;
7162;SDS011;3623;47.098;15.446;2023-01-31T11:50:38;1.50;;;1.33;;
7162;SDS011;3623;47.098;15.446;2023-01-31T11:53:16;1.70;;;1.37;;
7162;SDS011;3623;47.098;15.446;2023-01-31T11:55:45;1.53;;;1.20;;
7162;SDS011;3623;47.098;15.446;2023-01-31T11:58:16;1.33;;;1.17;;
7162;SDS011;3623;47.098;15.446;2023-01-31T12:00:54;0.77;;;0.77;;
7162;SDS011;3623;47.098;15.446;2023-01-31T12:03:24;0.70;;;0.70;;
7162;SDS011;3623;47.098;15.446;2023-01-31T12:06:00;3.37;;;1.63;;
7162;SDS011;3623;47.098;15.446;2023-01-31T12:08:30;1.30;;;1.03;;
7162;SDS011;3623;47.098;15.446;2023-01-31T12:11:02;1.37;;;1.20;;
7162;SDS011;3623;47.098;15.446;2023-01-31T12:13:31;1.20;;;1.10;;
7162;SDS011;3623;47.098;15.446;2023-01-31T12:16:12;0.90;;;0.67;;
7162;SDS011;3623;47.098;15.446;2023-01-31T12:18:53;6.70;;;3.17;;
7162;SDS011;3623;47.098;15.446;2023-01-31T12:21:48;1.23;;;1.13;;
7162;SDS011;3623;47.098;15.446;2023-01-31T12:24:25;2.63;;;1.60;;
7162;SDS011;3623;47.098;15.446;2023-01-31T12:27:03;2.40;;;2.20;;
7162;SDS011;3623;47.098;15.446;2023-01-31T12:29:44;2.80;;;1.33;;
7162;SDS011;3623;47.098;15.446;2023-01-31T12:32:34;2.13;;;0.93;;
7162;SDS011;3623;47.098;15.446;2023-01-31T12:35:34;2.07;;;1.00;;
7162;SDS011;3623;47.098;15.446;2023-01-31T12:38:15;1.70;;;1.40;;
7162;SDS011;3623;47.098;15.446;2023-01-31T12:40:58;1.00;;;0.93;;
7162;SDS011;3623;47.098;15.446;2023-01-31T12:43:39;3.07;;;0.87;;
7162;SDS011;3623;47.098;15.446;2023-01-31T12:46:23;3.13;;;1.50;;
7162;SDS011;3623;47.098;15.446;2023-01-31T12:49:00;2.33;;;1.33;;
7162;SDS011;3623;47.098;15.446;2023-01-31T12:51:48;1.50;;;1.40;;
7162;SDS011;3623;47.098;15.446;2023-01-31T12:54:36;1.80;;;0.83;;
7162;SDS011;3623;47.098;15.446;2023-01-31T12:57:17;1.30;;;1.00;;
7162;SDS011;3623;47.098;15.446;2023-01-31T12:59:54;1.47;;;0.90;;
7162;SDS011;3623;47.098;15.446;2023-01-31T13:02:34;1.27;;;0.80;;
7162;SDS011;3623;47.098;15.446;2023-01-31T13:05:10;4.00;;;0.80;;
7162;SDS011;3623;47.098;15.446;2023-01-31T13:07:50;5.77;;;1.20;;
7162;SDS011;3623;47.098;15.446;2023-01-31T13:10:26;1.40;;;1.17;;
7162;SDS011;3623;47.098;15.446;2023-01-31T13:12:58;1.93;;;1.10;;
7162;SDS011;3623;47.098;15.446;2023-01-31T13:15:27;1.20;;;1.10;;
7162;SDS011;3623;47.098;15.446;2023-01-31T13:18:02;1.37;;;1.00;;
7162;SDS011;3623;47.098;15.446;2023-01-31T13:20:32;2.10;;;1.50;;
7162;SDS011;3623;47.098;15.446;2023-01-31T13:23:05;2.00;;;0.93;;
7162;SDS011;3623;47.098;15.446;2023-01-31T13:25:39;1.10;;;1.03;;
7162;SDS011;3623;47.098;15.446;2023-01-31T13:28:12;1.50;;;1.13;;
7162;SDS011;3623;47.098;15.446;2023-01-31T13:30:44;2.30;;;0.93;;
7162;SDS011;3623;47.098;15.446;2023-01-31T13:33:17;2.15;;;1.02;;
7162;SDS011;3623;47.098;15.446;2023-01-31T13:35:54;1.27;;;1.07;;
7162;SDS011;3623;47.098;15.446;2023-01-31T13:38:37;1.57;;;0.93;;
7162;SDS011;3623;47.098;15.446;2023-01-31T13:41:10;5.75;;;1.50;;
7162;SDS011;3623;47.098;15.446;2023-01-31T13:43:43;1.23;;;1.13;;
7162;SDS011;3623;47.098;15.446;2023-01-31T13:46:10;1.35;;;1.23;;
7162;SDS011;3623;47.098;15.446;2023-01-31T13:48:39;1.23;;;1.13;;
7162;SDS011;3623;47.098;15.446;2023-01-31T13:51:11;1.60;;;1.40;;
7162;SDS011;3623;47.098;15.446;2023-01-31T13:53:44;2.08;;;1.25;;
7162;SDS011;3623;47.098;15.446;2023-01-31T13:56:18;2.53;;;1.40;;
7162;SDS011;3623;47.098;15.446;2023-01-31T13:58:49;2.70;;;1.20;;
7162;SDS011;3623;47.098;15.446;2023-01-31T14:01:18;2.33;;;1.30;;
7162;SDS011;3623;47.098;15.446;2023-01-31T14:12:52;2.38;;;1.35;;
7162;SDS011;3623;47.098;15.446;2023-01-31T14:15:50;1.15;;;1.13;;
7162;SDS011;3623;47.098;15.446;2023-01-31T14:24:17;2.53;;;1.50;;
7162;SDS011;3623;47.098;15.446;2023-01-31T14:26:51;2.45;;;1.65;;
7162;SDS011;3623;47.098;15.446;2023-01-31T14:29:21;1.23;;;1.13;;
7162;SDS011;3623;47.098;15.446;2023-01-31T14:31:52;1.63;;;1.25;;
7162;SDS011;3623;47.098;15.446;2023-01-31T14:34:23;1.75;;;1.35;;
7162;SDS011;3623;47.098;15.446;2023-01-31T14:36:55;5.00;;;1.80;;
7162;SDS011;3623;47.098;15.446;2023-01-31T14:43:00;1.92;;;1.83;;
7162;SDS011;3623;47.098;15.446;2023-01-31T14:51:54;1.85;;;1.75;;
7162;SDS011;3623;47.098;15.446;2023-01-31T14:54:49;3.08;;;2.17;;
7162;SDS011;3623;47.098;15.446;2023-01-31T14:57:24;3.15;;;2.00;;
7162;SDS011;3623;47.098;15.446;2023-01-31T14:59:56;1.42;;;1.13;;
7162;SDS011;3623;47.098;15.446;2023-01-31T15:02:39;3.63;;;1.85;;
7162;SDS011;3623;47.098;15.446;2023-01-31T15:05:13;2.40;;;1.50;;
7162;SDS011;3623;47.098;15.446;2023-01-31T15:08:04;1.77;;;1.67;;
7162;SDS011;3623;47.098;15.446;2023-01-31T15:10:55;1.73;;;1.60;;
7162;SDS011;3623;47.098;15.446;2023-01-31T15:13:34;1.98;;;1.77;;
7162;SDS011;3623;47.098;15.446;2023-01-31T15:16:08;3.10;;;1.85;;
7162;SDS011;3623;47.098;15.446;2023-01-31T15:18:43;1.73;;;1.50;;
7162;SDS011;3623;47.098;15.446;2023-01-31T15:21:20;2.78;;;2.53;;
7162;SDS011;3623;47.098;15.446;2023-01-31T15:23:51;1.80;;;1.70;;
7162;SDS011;3623;47.098;15.446;2023-01-31T15:26:21;2.05;;;1.95;;
7162;SDS011;3623;47.098;15.446;2023-01-31T15:28:50;1.75;;;1.60;;
7162;SDS011;3623;47.098;15.446;2023-01-31T15:31:20;1.98;;;1.83;;
7162;SDS011;3623;47.098;15.446;2023-01-31T15:33:53;1.67;;;1.58;;
7162;SDS011;3623;47.098;15.446;2023-01-31T15:36:26;4.25;;;1.55;;
7162;SDS011;3623;47.098;15.446;2023-01-31T15:38:59;1.60;;;1.50;;
7162;SDS011;3623;47.098;15.446;2023-01-31T15:44:16;2.17;;;2.08;;
7162;SDS011;3623;47.098;15.446;2023-01-31T15:46:45;2.15;;;2.00;;
7162;SDS011;3623;47.098;15.446;2023-01-31T15:49:21;4.10;;;1.60;;
7162;SDS011;3623;47.098;15.446;2023-01-31T15:52:04;2.72;;;2.03;;
7162;SDS011;3623;47.098;15.446;2023-01-31T15:54:37;1.38;;;1.25;;
7162;SDS011;3623;47.098;15.446;2023-01-31T15:57:09;3.75;;;1.75;;